createdAt,value
2023-03-29T00:02:09.637Z,12.32
2023-03-29T00:04:38.209Z,12.43
2023-03-29T00:07:14.410Z,11.72
2023-03-29T00:10:10.806Z,12.38
2023-03-29T00:12:56.450Z,12.02
2023-03-29T00:15:28.499Z,12.29
2023-03-29T00:18:13.218Z,11.87
2023-03-29T00:21:06.784Z,11.68
2023-03-29T00:23:37.447Z,11.45
2023-03-29T00:26:18.644Z,10.91
2023-03-29T00:28:48.699Z,11.37
2023-03-29T00:31:22.028Z,11.72
2023-03-29T00:33:49.460Z,11.75
2023-03-29T00:37:07.925Z,11.80
2023-03-29T00:39:42.649Z,11.83
2023-03-29T00:42:59.043Z,11.40
2023-03-29T00:45:51.995Z,12.16
2023-03-29T00:49:03.929Z,12.62
2023-03-29T00:51:52.796Z,12.53
2023-03-29T00:54:28.083Z,12.47
2023-03-29T00:57:06.985Z,12.62
2023-03-29T01:00:12.178Z,12.52
2023-03-29T01:02:59.934Z,12.40
2023-03-29T01:06:05.562Z,12.49
2023-03-29T01:08:42.311Z,12.16
2023-03-29T01:11:48.681Z,12.29
2023-03-29T01:14:44.396Z,12.33
2023-03-29T01:17:16.473Z,12.51
2023-03-29T01:20:22.385Z,12.59
2023-03-29T01:23:21.399Z,12.97
2023-03-29T01:26:13.314Z,13.15
2023-03-29T01:29:29.563Z,12.78
2023-03-29T01:32:17.974Z,11.70
2023-03-29T01:35:05.110Z,12.66
2023-03-29T01:37:40.054Z,12.27
2023-03-29T01:40:22.340Z,10.88
2023-03-29T01:43:11.844Z,11.93
2023-03-29T01:46:12.877Z,12.96
2023-03-29T01:49:32.703Z,12.60
2023-03-29T01:52:50.902Z,12.70
2023-03-29T01:55:56.010Z,13.08
2023-03-29T01:59:00.515Z,13.41
2023-03-29T02:02:06.157Z,13.23
2023-03-29T02:04:57.827Z,12.91
2023-03-29T02:07:49.015Z,12.86
2023-03-29T02:10:35.345Z,12.93
2023-03-29T02:13:24.417Z,12.70
2023-03-29T02:16:39.880Z,13.01
2023-03-29T02:19:19.945Z,13.20
2023-03-29T02:22:17.884Z,12.79
2023-03-29T02:25:35.664Z,13.16
2023-03-29T02:27:50.132Z,13.03
2023-03-29T02:31:02.446Z,12.81
2023-03-29T02:33:57.678Z,13.05
2023-03-29T02:36:59.133Z,13.18
2023-03-29T02:39:40.508Z,12.57
2023-03-29T02:42:11.233Z,12.59
2023-03-29T02:44:56.813Z,12.66
2023-03-29T02:48:11.628Z,13.06
2023-03-29T02:50:52.277Z,12.97
2023-03-29T02:53:41.549Z,11.60
2023-03-29T02:56:43.233Z,11.40
2023-03-29T03:02:12.394Z,10.12
2023-03-29T03:05:02.508Z,10.72
2023-03-29T03:10:48.752Z,10.84
2023-03-29T03:13:19.373Z,10.86
2023-03-29T03:15:57.932Z,10.65
2023-03-29T03:18:48.854Z,10.13
2023-03-29T03:21:57.546Z,11.93
2023-03-29T03:28:14.058Z,12.18
2023-03-29T03:30:56.494Z,12.31
2023-03-29T03:33:32.479Z,12.39
2023-03-29T03:36:44.498Z,12.08
2023-03-29T03:39:15.822Z,12.09
2023-03-29T03:42:11.646Z,11.39
2023-03-29T03:45:00.150Z,11.93
2023-03-29T03:47:45.094Z,11.43
2023-03-29T03:50:12.373Z,10.74
2023-03-29T03:52:40.403Z,10.14
2023-03-29T03:55:19.304Z,10.43
2023-03-29T03:58:14.889Z,10.48
2023-03-29T04:00:53.129Z,11.01
2023-03-29T04:03:39.063Z,10.73
2023-03-29T04:06:17.610Z,11.13
2023-03-29T04:09:00.141Z,11.17
2023-03-29T04:11:37.276Z,11.39
2023-03-29T04:17:16.263Z,11.41
2023-03-29T04:20:08.193Z,11.42
2023-03-29T04:22:45.664Z,10.82
2023-03-29T04:25:32.081Z,11.64
2023-03-29T04:28:02.966Z,11.79
2023-03-29T04:30:52.038Z,11.89
2023-03-29T04:33:43.456Z,11.75
2023-03-29T04:36:44.112Z,11.83
2023-03-29T04:39:14.792Z,11.72
2023-03-29T04:41:58.959Z,11.46
2023-03-29T04:44:55.059Z,10.94
2023-03-29T04:47:22.222Z,11.57
2023-03-29T04:49:53.076Z,11.14
2023-03-29T04:52:25.813Z,11.32
2023-03-29T04:55:06.991Z,10.86
2023-03-29T04:57:54.715Z,10.80
2023-03-29T05:00:43.449Z,11.58
2023-03-29T05:03:37.075Z,10.61
2023-03-29T05:06:29.522Z,11.20
2023-03-29T05:09:17.486Z,11.00
2023-03-29T05:12:08.319Z,10.89
2023-03-29T05:14:38.943Z,11.50
2023-03-29T05:17:10.144Z,11.69
2023-03-29T05:19:58.087Z,12.42
2023-03-29T05:23:05.175Z,12.06
2023-03-29T05:26:05.061Z,11.35
2023-03-29T05:28:44.596Z,12.10
2023-03-29T05:34:34.905Z,12.48
2023-03-29T05:37:21.043Z,11.84
2023-03-29T05:39:51.541Z,12.64
2023-03-29T05:42:26.751Z,12.35
2023-03-29T05:45:01.080Z,12.18
2023-03-29T05:47:31.246Z,12.77
2023-03-29T05:49:58.663Z,12.45
2023-03-29T05:52:28.898Z,13.09
2023-03-29T05:54:57.220Z,12.94
2023-03-29T05:57:24.986Z,12.90
2023-03-29T05:59:52.288Z,12.95
2023-03-29T06:02:20.648Z,12.09
2023-03-29T06:04:49.111Z,12.02
2023-03-29T06:07:16.671Z,12.72
2023-03-29T06:09:47.769Z,13.57
2023-03-29T06:12:14.990Z,13.49
2023-03-29T06:14:46.010Z,12.84
2023-03-29T06:17:14.057Z,13.26
2023-03-29T06:19:46.413Z,13.58
2023-03-29T06:22:18.479Z,13.78
2023-03-29T06:24:46.663Z,13.27
2023-03-29T06:27:14.593Z,13.43
2023-03-29T06:29:42.114Z,13.84
2023-03-29T06:32:12.765Z,14.27
2023-03-29T06:34:47.744Z,14.43
2023-03-29T06:37:18.360Z,14.58
2023-03-29T06:39:45.943Z,14.85
2023-03-29T06:42:21.613Z,15.68
2023-03-29T06:44:52.620Z,15.05
2023-03-29T06:47:19.886Z,15.43
2023-03-29T06:49:47.141Z,13.81
2023-03-29T06:52:17.126Z,14.27
2023-03-29T06:54:44.601Z,13.15
2023-03-29T06:57:14.603Z,14.18
2023-03-29T06:59:45.534Z,12.87
2023-03-29T07:02:29.319Z,13.59
2023-03-29T07:05:01.661Z,12.06
2023-03-29T07:07:44.174Z,10.69
2023-03-29T07:10:20.533Z,11.54
2023-03-29T07:12:49.408Z,11.72
2023-03-29T07:15:19.770Z,12.10
2023-03-29T07:17:47.824Z,13.33
2023-03-29T07:20:16.904Z,15.10
2023-03-29T07:22:49.470Z,14.64
2023-03-29T07:25:18.851Z,12.66
2023-03-29T07:27:52.928Z,11.70
2023-03-29T07:30:26.442Z,13.96
2023-03-29T07:32:58.963Z,14.06
2023-03-29T07:35:27.710Z,12.36
2023-03-29T07:38:03.111Z,12.37
2023-03-29T07:40:31.330Z,13.86
2023-03-29T07:43:21.288Z,15.17
2023-03-29T07:45:48.828Z,14.85
2023-03-29T07:48:16.367Z,15.32
2023-03-29T07:50:47.688Z,13.68
2023-03-29T07:53:14.981Z,13.16
2023-03-29T07:55:47.805Z,13.14
2023-03-29T07:58:16.499Z,14.46
2023-03-29T08:00:46.938Z,13.42
2023-03-29T08:03:15.015Z,14.33
2023-03-29T08:05:42.400Z,12.76
2023-03-29T08:08:14.320Z,12.03
2023-03-29T08:10:45.194Z,13.19
2023-03-29T08:13:12.908Z,11.97
2023-03-29T08:15:47.462Z,12.71
2023-03-29T08:18:21.091Z,12.58
2023-03-29T08:20:48.942Z,14.44
2023-03-29T08:23:19.212Z,14.78
2023-03-29T08:25:52.329Z,15.68
2023-03-29T08:28:19.816Z,14.25
2023-03-29T08:30:48.367Z,15.68
2023-03-29T08:33:18.470Z,14.70
2023-03-29T08:35:46.575Z,13.84
2023-03-29T08:38:14.458Z,15.11
2023-03-29T08:40:47.832Z,15.45
2023-03-29T08:44:20.940Z,16.53
2023-03-29T08:47:07.411Z,15.93
2023-03-29T08:49:39.957Z,15.35
2023-03-29T08:52:41.132Z,14.38
2023-03-29T08:55:32.834Z,16.13
2023-03-29T08:58:07.986Z,14.80
2023-03-29T09:00:50.883Z,15.06
2023-03-29T09:04:00.003Z,15.52
2023-03-29T09:06:30.278Z,14.24
2023-03-29T09:08:58.105Z,15.22
2023-03-29T09:11:26.312Z,14.37
2023-03-29T09:14:36.473Z,16.12
2023-03-29T09:17:28.021Z,16.11
2023-03-29T09:20:37.025Z,14.01
2023-03-29T09:23:22.651Z,14.71
2023-03-29T09:26:13.147Z,13.79
2023-03-29T09:29:46.424Z,16.66
2023-03-29T09:32:32.231Z,15.57
2023-03-29T09:35:21.295Z,14.67
2023-03-29T09:37:52.623Z,14.05
2023-03-29T09:40:43.026Z,16.35
2023-03-29T09:43:19.101Z,15.13
2023-03-29T09:46:07.812Z,16.14
2023-03-29T09:48:44.363Z,14.60
2023-03-29T09:51:14.766Z,16.10
2023-03-29T09:53:48.363Z,15.60
2023-03-29T09:56:19.248Z,15.73
2023-03-29T09:58:49.466Z,15.18
2023-03-29T10:01:21.104Z,16.08
2023-03-29T10:03:52.563Z,16.84
2023-03-29T10:06:27.748Z,14.84
2023-03-29T10:08:59.184Z,15.14
2023-03-29T10:11:34.898Z,17.70
2023-03-29T10:14:25.063Z,16.32
2023-03-29T10:17:02.613Z,14.58
2023-03-29T10:19:37.931Z,14.18
2023-03-29T10:22:21.300Z,15.13
2023-03-29T10:24:52.365Z,14.92
2023-03-29T10:27:28.501Z,16.34
2023-03-29T10:30:19.562Z,18.12
2023-03-29T10:33:00.535Z,15.36
2023-03-29T10:35:40.583Z,15.11
2023-03-29T10:38:17.573Z,14.80
2023-03-29T10:40:59.385Z,14.71
2023-03-29T10:43:32.435Z,14.62
2023-03-29T10:46:20.138Z,14.65
2023-03-29T10:49:00.217Z,14.73
2023-03-29T10:51:33.623Z,15.05
2023-03-29T10:54:05.635Z,14.44
2023-03-29T10:56:46.328Z,17.62
2023-03-29T10:59:48.893Z,16.33
2023-03-29T11:02:16.015Z,15.00
2023-03-29T11:05:17.672Z,16.04
2023-03-29T11:08:15.996Z,15.26
2023-03-29T11:10:57.115Z,15.22
2023-03-29T11:14:04.667Z,15.66
2023-03-29T11:17:10.177Z,18.07
2023-03-29T11:20:14.725Z,15.84
2023-03-29T11:22:56.429Z,16.98
2023-03-29T11:25:56.950Z,17.74
2023-03-29T11:28:56.373Z,17.88
2023-03-29T11:31:52.997Z,18.43
2023-03-29T11:35:04.179Z,18.80
2023-03-29T11:38:14.057Z,20.26
2023-03-29T11:41:13.771Z,19.73
2023-03-29T11:44:22.391Z,15.34
2023-03-29T11:47:06.278Z,17.55
2023-03-29T11:49:49.533Z,17.54
2023-03-29T11:52:31.407Z,18.99
2023-03-29T11:55:23.238Z,16.25
2023-03-29T11:58:04.323Z,15.67
2023-03-29T12:00:49.571Z,16.97
2023-03-29T12:03:46.234Z,16.13
2023-03-29T12:06:29.554Z,16.71
2023-03-29T12:09:07.871Z,17.42
2023-03-29T12:11:51.452Z,16.82
2023-03-29T12:14:29.118Z,16.38
2023-03-29T12:17:15.320Z,16.16
2023-03-29T12:19:58.252Z,16.23
2023-03-29T12:22:29.155Z,16.39
2023-03-29T12:24:57.821Z,15.89
2023-03-29T12:27:33.219Z,14.92
2023-03-29T12:30:28.252Z,17.27
2023-03-29T12:33:23.283Z,16.65
2023-03-29T12:36:18.628Z,16.84
2023-03-29T12:38:48.239Z,15.84
2023-03-29T12:41:23.018Z,17.50
2023-03-29T12:44:13.964Z,17.11
2023-03-29T12:46:44.289Z,16.16
2023-03-29T12:49:46.150Z,15.04
2023-03-29T12:52:36.490Z,14.68
2023-03-29T12:55:25.990Z,15.94
2023-03-29T12:58:07.247Z,15.19
2023-03-29T13:00:45.394Z,16.08
2023-03-29T13:03:30.072Z,18.37
2023-03-29T13:06:51.696Z,17.19
2023-03-29T13:10:08.556Z,19.99
2023-03-29T13:12:35.658Z,20.02
2023-03-29T13:15:08.367Z,22.69
2023-03-29T13:18:17.042Z,16.60
2023-03-29T13:21:03.372Z,18.47
2023-03-29T13:23:43.295Z,18.26
2023-03-29T13:26:58.846Z,16.40
2023-03-29T13:29:50.114Z,15.86
2023-03-29T13:32:20.256Z,18.44
2023-03-29T13:35:08.374Z,17.31
2023-03-29T13:38:21.729Z,15.93
2023-03-29T13:41:05.861Z,18.69
2023-03-29T13:43:54.093Z,21.44
2023-03-29T13:46:46.479Z,16.60
2023-03-29T13:49:28.153Z,14.37
2023-03-29T13:52:37.022Z,16.83
2023-03-29T13:55:32.278Z,15.75
2023-03-29T13:58:42.117Z,17.16
2023-03-29T14:01:39.694Z,15.36
2023-03-29T14:04:13.954Z,16.21
2023-03-29T14:07:01.709Z,14.76
2023-03-29T14:09:43.174Z,15.34
2023-03-29T14:12:17.662Z,17.27
2023-03-29T14:14:58.735Z,18.39
2023-03-29T14:17:27.932Z,21.71
2023-03-29T14:20:09.825Z,18.99
2023-03-29T14:22:44.420Z,18.08
2023-03-29T14:25:19.886Z,16.32
2023-03-29T14:27:50.359Z,15.65
2023-03-29T14:30:34.394Z,15.05
2023-03-29T14:33:05.311Z,18.29
2023-03-29T14:35:43.767Z,17.44
2023-03-29T14:38:16.649Z,19.08
2023-03-29T14:40:49.477Z,21.95
2023-03-29T14:43:24.341Z,19.83
2023-03-29T14:45:55.087Z,18.95
2023-03-29T14:48:26.270Z,20.66
2023-03-29T14:50:56.932Z,19.25
2023-03-29T14:53:31.533Z,22.45
2023-03-29T14:55:59.801Z,18.94
2023-03-29T14:58:40.896Z,16.95
2023-03-29T15:01:23.695Z,16.16
2023-03-29T15:04:06.480Z,16.81
2023-03-29T15:06:49.337Z,17.09
2023-03-29T15:09:40.131Z,18.66
2023-03-29T15:12:07.902Z,17.57
2023-03-29T15:14:39.032Z,18.64
2023-03-29T15:17:47.621Z,18.77
2023-03-29T15:20:45.583Z,18.39
2023-03-29T15:23:18.598Z,20.47
2023-03-29T15:25:59.554Z,20.70
2023-03-29T15:28:37.383Z,19.56
2023-03-29T15:31:17.987Z,19.91
2023-03-29T15:33:47.014Z,16.96
2023-03-29T15:36:17.861Z,17.15
2023-03-29T15:38:51.247Z,15.48
2023-03-29T15:41:18.759Z,16.65
2023-03-29T15:43:46.959Z,17.37
2023-03-29T15:46:17.514Z,20.37
2023-03-29T15:48:50.265Z,19.58
2023-03-29T15:51:40.956Z,20.26
2023-03-29T15:57:28.437Z,17.51
2023-03-29T16:00:06.233Z,17.51
2023-03-29T16:02:41.757Z,18.89
2023-03-29T16:05:21.469Z,17.23
2023-03-29T16:07:55.574Z,16.49
2023-03-29T16:10:30.516Z,17.49
2023-03-29T16:13:13.585Z,16.65
2023-03-29T16:17:06.371Z,14.88
2023-03-29T16:20:58.464Z,15.72
2023-03-29T16:49:56.298Z,15.52
2023-03-29T16:52:50.567Z,14.18
2023-03-29T16:56:03.606Z,14.25
2023-03-29T17:00:07.552Z,14.43
2023-03-29T17:03:15.052Z,14.27
2023-03-29T17:06:27.196Z,13.98
2023-03-29T17:09:04.668Z,14.72
2023-03-29T17:12:41.861Z,13.98
2023-03-29T17:15:56.325Z,14.06
2023-03-29T17:19:19.471Z,15.07
2023-03-29T17:25:23.814Z,14.07
2023-03-29T17:28:20.879Z,13.40
2023-03-29T17:31:11.606Z,13.41
2023-03-29T17:33:47.157Z,12.99
2023-03-29T17:37:31.181Z,12.88
2023-03-29T17:40:35.529Z,13.86
2023-03-29T17:43:34.479Z,12.64
2023-03-29T17:46:39.496Z,12.86
2023-03-29T17:50:00.067Z,13.39
2023-03-29T17:56:11.442Z,12.45
2023-03-29T17:59:38.190Z,13.70
2023-03-29T18:03:16.734Z,12.86
2023-03-29T18:20:05.645Z,13.03
2023-03-29T18:26:50.978Z,14.12
2023-03-29T18:30:00.841Z,14.98
2023-03-29T18:36:40.741Z,15.04
2023-03-29T18:39:49.306Z,13.92
2023-03-29T18:42:38.043Z,13.18
2023-03-29T18:45:34.948Z,13.83
2023-03-29T18:49:48.904Z,13.16
2023-03-29T18:52:45.394Z,12.21
2023-03-29T18:56:12.984Z,12.48
2023-03-29T18:58:54.329Z,12.62
2023-03-29T19:02:03.384Z,13.12
2023-03-29T19:04:41.876Z,12.96
2023-03-29T19:07:12.192Z,12.59
2023-03-29T19:09:43.037Z,12.57
2023-03-29T19:12:15.294Z,12.49
2023-03-29T19:17:48.745Z,13.97
2023-03-29T19:20:22.235Z,14.63
2023-03-29T19:22:53.973Z,15.18
2023-03-29T19:25:22.177Z,15.12
2023-03-29T19:30:59.647Z,14.73
2023-03-29T19:33:49.247Z,14.40
2023-03-29T19:36:39.564Z,14.54
2023-03-29T19:42:24.539Z,14.65
2023-03-29T19:53:06.235Z,13.48
2023-03-29T19:59:15.572Z,12.83
2023-03-29T20:12:21.880Z,12.81
2023-03-29T20:15:46.610Z,13.20
2023-03-29T20:21:18.931Z,13.11
2023-03-29T20:21:29.608Z,12.85
2023-03-29T20:25:40.225Z,12.59
2023-03-29T20:31:33.872Z,13.67
2023-03-29T20:34:01.161Z,13.53
2023-03-29T20:36:30.953Z,14.06
2023-03-29T20:39:02.187Z,14.60
2023-03-29T20:41:36.708Z,14.77
2023-03-29T20:44:15.009Z,14.57
2023-03-29T20:46:55.716Z,14.58
2023-03-29T20:49:32.684Z,14.60
2023-03-29T20:51:59.928Z,14.85
2023-03-29T20:54:48.034Z,14.59
2023-03-29T20:57:21.359Z,14.48
2023-03-29T20:59:56.860Z,14.48
2023-03-29T21:02:24.770Z,14.70
2023-03-29T21:04:54.134Z,14.63
2023-03-29T21:07:21.971Z,14.53
2023-03-29T21:09:52.867Z,14.59
2023-03-29T21:12:23.689Z,14.77
2023-03-29T21:14:53.817Z,14.80
2023-03-29T21:17:30.936Z,14.81
2023-03-29T21:20:03.154Z,14.57
2023-03-29T21:22:43.241Z,14.71
2023-03-29T21:25:19.846Z,14.95
2023-03-29T21:27:50.950Z,15.02
2023-03-29T21:30:21.058Z,14.40
2023-03-29T21:32:48.284Z,14.68
2023-03-29T21:35:18.320Z,14.90
2023-03-29T21:37:45.743Z,14.23
2023-03-29T21:40:16.442Z,14.69
2023-03-29T21:42:43.862Z,14.58
2023-03-29T21:45:14.270Z,14.49
2023-03-29T21:47:49.078Z,14.69
2023-03-29T21:50:16.580Z,14.47
2023-03-29T21:52:43.694Z,14.36
2023-03-29T21:55:16.458Z,14.56
2023-03-29T21:57:46.754Z,13.99
2023-03-29T22:00:15.945Z,14.50
2023-03-29T22:02:45.911Z,14.70
2023-03-29T22:05:13.326Z,14.63
2023-03-29T22:07:55.625Z,14.23
2023-03-29T22:10:23.033Z,14.25
2023-03-29T22:12:54.417Z,13.95
2023-03-29T22:15:25.453Z,14.04
2023-03-29T22:17:53.493Z,15.01
2023-03-29T22:20:24.583Z,14.65
2023-03-29T22:22:51.821Z,14.25
2023-03-29T22:25:23.612Z,14.37
2023-03-29T22:27:53.241Z,14.59
2023-03-29T22:30:20.533Z,15.05
2023-03-29T22:32:59.011Z,14.82
2023-03-29T22:35:26.927Z,14.88
2023-03-29T22:38:16.398Z,15.11
2023-03-29T22:40:47.652Z,15.03
2023-03-29T22:43:27.809Z,15.17
2023-03-29T22:45:55.331Z,15.12
2023-03-29T22:48:24.972Z,14.68
2023-03-29T22:50:52.119Z,15.00
2023-03-29T22:53:21.872Z,15.37
2023-03-29T22:55:52.301Z,15.03
2023-03-29T22:58:32.027Z,14.55
2023-03-29T23:01:00.622Z,14.69
2023-03-29T23:03:28.268Z,14.59
2023-03-29T23:06:03.908Z,14.71
2023-03-29T23:08:35.418Z,14.97
2023-03-29T23:11:03.537Z,15.09
2023-03-29T23:13:39.198Z,15.22
2023-03-29T23:16:07.001Z,15.01
2023-03-29T23:18:40.296Z,15.31
2023-03-29T23:21:09.475Z,15.15
2023-03-29T23:23:39.548Z,15.00
2023-03-29T23:26:12.158Z,14.38
2023-03-29T23:28:55.344Z,14.99
2023-03-29T23:31:27.490Z,14.93
2023-03-29T23:34:01.327Z,14.43
2023-03-29T23:36:31.979Z,14.81
2023-03-29T23:39:04.706Z,15.17
2023-03-29T23:41:31.868Z,15.41
2023-03-29T23:44:08.168Z,15.30
2023-03-29T23:46:44.944Z,15.12
2023-03-29T23:49:12.525Z,15.04
2023-03-29T23:51:42.949Z,14.82
2023-03-29T23:54:10.101Z,14.23
2023-03-29T23:56:40.918Z,14.19
2023-03-29T23:59:14.221Z,14.11
